sensor_id;sensor_type;location;lat;lon;timestamp;temperature;humidity
33955;DHT22;20233;50.804;7.126;2023-04-24T00:00:17;12.80;99.90
33955;DHT22;20233;50.804;7.126;2023-04-24T00:02:44;12.70;99.90
33955;DHT22;20233;50.804;7.126;2023-04-24T00:05:12;12.80;99.90
33955;DHT22;20233;50.804;7.126;2023-04-24T00:07:39;12.80;99.90
33955;DHT22;20233;50.804;7.126;2023-04-24T00:10:05;12.90;99.90
33955;DHT22;20233;50.804;7.126;2023-04-24T00:12:31;12.90;99.90
33955;DHT22;20233;50.804;7.126;2023-04-24T00:14:57;12.80;99.90
33955;DHT22;20233;50.804;7.126;2023-04-24T00:17:22;12.80;99.90
33955;DHT22;20233;50.804;7.126;2023-04-24T00:19:48;12.80;99.90
33955;DHT22;20233;50.804;7.126;2023-04-24T00:22:15;12.80;99.90
33955;DHT22;20233;50.804;7.126;2023-04-24T00:24:41;12.70;99.90
33955;DHT22;20233;50.804;7.126;2023-04-24T00:27:06;12.70;99.90
33955;DHT22;20233;50.804;7.126;2023-04-24T00:29:32;12.70;99.90
33955;DHT22;20233;50.804;7.126;2023-04-24T00:31:57;12.80;99.90
33955;DHT22;20233;50.804;7.126;2023-04-24T00:34:23;12.80;99.90
33955;DHT22;20233;50.804;7.126;2023-04-24T00:36:48;12.70;99.90
33955;DHT22;20233;50.804;7.126;2023-04-24T00:39:18;12.80;99.90
33955;DHT22;20233;50.804;7.126;2023-04-24T00:41:44;12.70;99.90
33955;DHT22;20233;50.804;7.126;2023-04-24T00:44:10;12.70;99.90
33955;DHT22;20233;50.804;7.126;2023-04-24T00:46:36;12.60;99.90
33955;DHT22;20233;50.804;7.126;2023-04-24T00:49:02;12.70;99.90
33955;DHT22;20233;50.804;7.126;2023-04-24T00:51:28;12.70;99.90
33955;DHT22;20233;50.804;7.126;2023-04-24T00:53:53;12.70;99.90
33955;DHT22;20233;50.804;7.126;2023-04-24T00:56:19;12.70;99.90
33955;DHT22;20233;50.804;7.126;2023-04-24T00:58:45;12.80;99.90
33955;DHT22;20233;50.804;7.126;2023-04-24T01:01:10;12.80;99.90
33955;DHT22;20233;50.804;7.126;2023-04-24T01:03:37;12.70;99.90
33955;DHT22;20233;50.804;7.126;2023-04-24T01:06:03;12.80;99.90
33955;DHT22;20233;50.804;7.126;2023-04-24T01:08:30;12.90;99.90
33955;DHT22;20233;50.804;7.126;2023-04-24T01:10:57;12.90;99.90
33955;DHT22;20233;50.804;7.126;2023-04-24T01:13:22;12.90;99.90
33955;DHT22;20233;50.804;7.126;2023-04-24T01:15:48;12.90;99.90
33955;DHT22;20233;50.804;7.126;2023-04-24T01:18:14;12.90;99.90
33955;DHT22;20233;50.804;7.126;2023-04-24T01:20:41;12.80;99.90
33955;DHT22;20233;50.804;7.126;2023-04-24T01:23:08;12.90;99.90
33955;DHT22;20233;50.804;7.126;2023-04-24T01:25:34;12.90;99.90
33955;DHT22;20233;50.804;7.126;2023-04-24T01:28:00;12.90;99.90
33955;DHT22;20233;50.804;7.126;2023-04-24T01:30:26;12.90;99.90
33955;DHT22;20233;50.804;7.126;2023-04-24T01:32:52;12.90;99.90
33955;DHT22;20233;50.804;7.126;2023-04-24T01:35:20;12.80;99.90
33955;DHT22;20233;50.804;7.126;2023-04-24T01:37:46;12.50;99.90
33955;DHT22;20233;50.804;7.126;2023-04-24T01:40:12;12.60;99.90
33955;DHT22;20233;50.804;7.126;2023-04-24T01:42:37;12.60;99.90
33955;DHT22;20233;50.804;7.126;2023-04-24T01:45:04;12.60;99.90
33955;DHT22;20233;50.804;7.126;2023-04-24T01:47:31;12.40;99.90
33955;DHT22;20233;50.804;7.126;2023-04-24T01:49:57;12.30;99.90
33955;DHT22;20233;50.804;7.126;2023-04-24T01:52:22;12.40;99.90
33955;DHT22;20233;50.804;7.126;2023-04-24T01:54:48;12.30;99.90
33955;DHT22;20233;50.804;7.126;2023-04-24T01:57:14;12.40;99.90
33955;DHT22;20233;50.804;7.126;2023-04-24T01:59:40;12.30;99.90
33955;DHT22;20233;50.804;7.126;2023-04-24T02:04:32;12.20;99.90
33955;DHT22;20233;50.804;7.126;2023-04-24T02:06:57;12.30;99.90
33955;DHT22;20233;50.804;7.126;2023-04-24T02:09:24;12.20;99.90
33955;DHT22;20233;50.804;7.126;2023-04-24T02:11:50;12.10;99.90
33955;DHT22;20233;50.804;7.126;2023-04-24T02:14:15;12.20;99.90
33955;DHT22;20233;50.804;7.126;2023-04-24T02:16:41;12.20;99.90
33955;DHT22;20233;50.804;7.126;2023-04-24T02:19:06;12.10;99.90
33955;DHT22;20233;50.804;7.126;2023-04-24T02:23:58;12.10;99.90
33955;DHT22;20233;50.804;7.126;2023-04-24T02:26:25;12.00;99.90
33955;DHT22;20233;50.804;7.126;2023-04-24T02:28:50;12.00;99.90
33955;DHT22;20233;50.804;7.126;2023-04-24T02:31:16;11.90;99.90
33955;DHT22;20233;50.804;7.126;2023-04-24T02:33:41;11.80;99.90
33955;DHT22;20233;50.804;7.126;2023-04-24T02:36:07;11.70;99.90
33955;DHT22;20233;50.804;7.126;2023-04-24T02:38:32;11.50;99.90
33955;DHT22;20233;50.804;7.126;2023-04-24T02:40:58;11.50;99.90
33955;DHT22;20233;50.804;7.126;2023-04-24T02:43:23;11.50;99.90
33955;DHT22;20233;50.804;7.126;2023-04-24T02:45:49;11.30;99.90
33955;DHT22;20233;50.804;7.126;2023-04-24T02:48:15;11.30;99.90
33955;DHT22;20233;50.804;7.126;2023-04-24T02:50:40;11.20;99.90
33955;DHT22;20233;50.804;7.126;2023-04-24T02:53:06;11.10;99.90
33955;DHT22;20233;50.804;7.126;2023-04-24T02:55:31;11.10;99.90
33955;DHT22;20233;50.804;7.126;2023-04-24T02:57:57;11.00;99.90
33955;DHT22;20233;50.804;7.126;2023-04-24T03:00:23;10.90;99.90
33955;DHT22;20233;50.804;7.126;2023-04-24T03:02:48;11.00;99.90
33955;DHT22;20233;50.804;7.126;2023-04-24T03:05:15;11.00;99.90
33955;DHT22;20233;50.804;7.126;2023-04-24T03:07:40;10.90;99.90
33955;DHT22;20233;50.804;7.126;2023-04-24T03:10:07;10.90;99.90
33955;DHT22;20233;50.804;7.126;2023-04-24T03:12:33;10.90;99.90
33955;DHT22;20233;50.804;7.126;2023-04-24T03:14:58;10.90;99.90
33955;DHT22;20233;50.804;7.126;2023-04-24T03:17:24;10.90;99.90
33955;DHT22;20233;50.804;7.126;2023-04-24T03:19:49;10.90;99.90
33955;DHT22;20233;50.804;7.126;2023-04-24T03:22:15;10.90;99.90
33955;DHT22;20233;50.804;7.126;2023-04-24T03:24:41;10.90;99.90
33955;DHT22;20233;50.804;7.126;2023-04-24T03:27:06;10.90;99.90
33955;DHT22;20233;50.804;7.126;2023-04-24T03:29:32;10.80;99.90
33955;DHT22;20233;50.804;7.126;2023-04-24T03:31:57;10.70;99.90
33955;DHT22;20233;50.804;7.126;2023-04-24T03:34:23;10.70;99.90
33955;DHT22;20233;50.804;7.126;2023-04-24T03:36:48;10.70;99.90
33955;DHT22;20233;50.804;7.126;2023-04-24T03:39:14;10.50;99.90
33955;DHT22;20233;50.804;7.126;2023-04-24T03:41:40;10.50;99.90
33955;DHT22;20233;50.804;7.126;2023-04-24T03:44:05;10.50;99.90
33955;DHT22;20233;50.804;7.126;2023-04-24T03:46:33;10.50;99.90
33955;DHT22;20233;50.804;7.126;2023-04-24T03:48:58;10.60;99.90
33955;DHT22;20233;50.804;7.126;2023-04-24T03:51:24;10.60;99.90
33955;DHT22;20233;50.804;7.126;2023-04-24T03:53:49;10.60;99.90
33955;DHT22;20233;50.804;7.126;2023-04-24T03:56:15;10.60;99.90
33955;DHT22;20233;50.804;7.126;2023-04-24T03:58:40;10.50;99.90
33955;DHT22;20233;50.804;7.126;2023-04-24T04:01:06;10.40;99.90
33955;DHT22;20233;50.804;7.126;2023-04-24T04:03:31;10.40;99.90
33955;DHT22;20233;50.804;7.126;2023-04-24T04:05:57;10.30;99.90
33955;DHT22;20233;50.804;7.126;2023-04-24T04:08:23;10.30;99.90
33955;DHT22;20233;50.804;7.126;2023-04-24T04:10:48;10.30;99.90
33955;DHT22;20233;50.804;7.126;2023-04-24T04:13:14;10.30;99.90
33955;DHT22;20233;50.804;7.126;2023-04-24T04:15:39;10.30;99.90
33955;DHT22;20233;50.804;7.126;2023-04-24T04:18:05;10.30;99.90
33955;DHT22;20233;50.804;7.126;2023-04-24T04:20:31;10.30;99.90
33955;DHT22;20233;50.804;7.126;2023-04-24T04:22:56;10.30;99.90
33955;DHT22;20233;50.804;7.126;2023-04-24T04:25:22;10.30;99.90
33955;DHT22;20233;50.804;7.126;2023-04-24T04:27:48;10.30;99.90
33955;DHT22;20233;50.804;7.126;2023-04-24T04:30:14;10.30;99.90
33955;DHT22;20233;50.804;7.126;2023-04-24T04:32:40;10.30;99.90
33955;DHT22;20233;50.804;7.126;2023-04-24T04:35:06;10.40;99.90
33955;DHT22;20233;50.804;7.126;2023-04-24T04:37:32;10.40;99.90
33955;DHT22;20233;50.804;7.126;2023-04-24T04:40:01;10.40;99.90
33955;DHT22;20233;50.804;7.126;2023-04-24T04:42:32;10.30;99.90
33955;DHT22;20233;50.804;7.126;2023-04-24T04:44:58;10.40;99.90
33955;DHT22;20233;50.804;7.126;2023-04-24T04:47:23;10.40;99.90
33955;DHT22;20233;50.804;7.126;2023-04-24T04:49:49;10.40;99.90
33955;DHT22;20233;50.804;7.126;2023-04-24T04:52:17;10.40;99.90
33955;DHT22;20233;50.804;7.126;2023-04-24T04:54:43;10.40;99.90
33955;DHT22;20233;50.804;7.126;2023-04-24T04:57:08;10.40;99.90
33955;DHT22;20233;50.804;7.126;2023-04-24T04:59:34;10.40;99.90
33955;DHT22;20233;50.804;7.126;2023-04-24T05:02:00;10.40;99.90
33955;DHT22;20233;50.804;7.126;2023-04-24T05:04:27;10.50;99.90
33955;DHT22;20233;50.804;7.126;2023-04-24T05:06:55;10.50;99.90
33955;DHT22;20233;50.804;7.126;2023-04-24T05:09:23;10.50;99.90
33955;DHT22;20233;50.804;7.126;2023-04-24T05:11:53;10.50;99.90
33955;DHT22;20233;50.804;7.126;2023-04-24T05:14:23;10.50;99.90
33955;DHT22;20233;50.804;7.126;2023-04-24T05:16:50;10.50;99.90
33955;DHT22;20233;50.804;7.126;2023-04-24T05:19:18;10.40;99.90
33955;DHT22;20233;50.804;7.126;2023-04-24T05:21:46;10.40;99.90
33955;DHT22;20233;50.804;7.126;2023-04-24T05:24:13;10.40;99.90
33955;DHT22;20233;50.804;7.126;2023-04-24T05:26:42;10.50;99.90
33955;DHT22;20233;50.804;7.126;2023-04-24T05:29:09;10.50;99.90
33955;DHT22;20233;50.804;7.126;2023-04-24T05:31:37;10.50;99.90
33955;DHT22;20233;50.804;7.126;2023-04-24T05:34:03;10.50;99.90
33955;DHT22;20233;50.804;7.126;2023-04-24T05:36:31;10.40;99.90
33955;DHT22;20233;50.804;7.126;2023-04-24T05:38:58;10.50;99.90
33955;DHT22;20233;50.804;7.126;2023-04-24T05:41:26;10.50;99.90
33955;DHT22;20233;50.804;7.126;2023-04-24T05:43:53;10.50;99.90
33955;DHT22;20233;50.804;7.126;2023-04-24T05:46:20;10.50;99.90
33955;DHT22;20233;50.804;7.126;2023-04-24T05:48:47;10.50;99.90
33955;DHT22;20233;50.804;7.126;2023-04-24T05:51:15;10.50;99.90
33955;DHT22;20233;50.804;7.126;2023-04-24T05:53:43;10.50;99.90
33955;DHT22;20233;50.804;7.126;2023-04-24T05:56:12;10.50;99.90
33955;DHT22;20233;50.804;7.126;2023-04-24T05:58:40;10.60;99.90
33955;DHT22;20233;50.804;7.126;2023-04-24T06:01:07;10.50;99.90
33955;DHT22;20233;50.804;7.126;2023-04-24T06:03:33;10.50;99.90
33955;DHT22;20233;50.804;7.126;2023-04-24T06:06:01;10.50;99.90
33955;DHT22;20233;50.804;7.126;2023-04-24T06:08:28;10.50;99.90
33955;DHT22;20233;50.804;7.126;2023-04-24T06:10:56;10.50;99.90
33955;DHT22;20233;50.804;7.126;2023-04-24T06:13:23;10.50;99.90
33955;DHT22;20233;50.804;7.126;2023-04-24T06:15:52;10.50;99.90
33955;DHT22;20233;50.804;7.126;2023-04-24T06:18:20;10.60;99.90
33955;DHT22;20233;50.804;7.126;2023-04-24T06:20:48;10.60;99.90
33955;DHT22;20233;50.804;7.126;2023-04-24T06:23:16;10.60;99.90
33955;DHT22;20233;50.804;7.126;2023-04-24T06:25:44;10.60;99.90
33955;DHT22;20233;50.804;7.126;2023-04-24T06:28:13;10.60;99.90
33955;DHT22;20233;50.804;7.126;2023-04-24T06:30:40;10.70;99.90
33955;DHT22;20233;50.804;7.126;2023-04-24T06:33:07;10.70;99.90
33955;DHT22;20233;50.804;7.126;2023-04-24T06:35:35;10.70;99.90
33955;DHT22;20233;50.804;7.126;2023-04-24T06:38:03;10.80;99.90
33955;DHT22;20233;50.804;7.126;2023-04-24T06:40:29;10.80;99.90
33955;DHT22;20233;50.804;7.126;2023-04-24T06:42:56;10.80;99.90
33955;DHT22;20233;50.804;7.126;2023-04-24T06:45:24;10.80;99.90
33955;DHT22;20233;50.804;7.126;2023-04-24T06:47:51;10.90;99.90
33955;DHT22;20233;50.804;7.126;2023-04-24T06:50:18;10.80;99.90
33955;DHT22;20233;50.804;7.126;2023-04-24T06:52:45;10.90;99.90
33955;DHT22;20233;50.804;7.126;2023-04-24T06:55:12;10.80;99.90
33955;DHT22;20233;50.804;7.126;2023-04-24T06:57:42;10.80;99.90
33955;DHT22;20233;50.804;7.126;2023-04-24T07:00:10;10.80;99.90
33955;DHT22;20233;50.804;7.126;2023-04-24T07:02:38;10.60;99.90
33955;DHT22;20233;50.804;7.126;2023-04-24T07:05:08;10.60;99.90
33955;DHT22;20233;50.804;7.126;2023-04-24T07:07:35;10.50;99.90
33955;DHT22;20233;50.804;7.126;2023-04-24T07:10:04;10.40;99.90
33955;DHT22;20233;50.804;7.126;2023-04-24T07:12:31;10.40;99.90
33955;DHT22;20233;50.804;7.126;2023-04-24T07:14:58;10.40;99.90
33955;DHT22;20233;50.804;7.126;2023-04-24T07:17:24;10.40;99.90
33955;DHT22;20233;50.804;7.126;2023-04-24T07:19:52;10.50;99.90
33955;DHT22;20233;50.804;7.126;2023-04-24T07:22:23;10.50;99.90
33955;DHT22;20233;50.804;7.126;2023-04-24T07:24:50;10.40;99.90
33955;DHT22;20233;50.804;7.126;2023-04-24T07:27:17;10.40;99.90
33955;DHT22;20233;50.804;7.126;2023-04-24T07:29:44;10.30;99.90
33955;DHT22;20233;50.804;7.126;2023-04-24T07:32:11;10.40;99.90
33955;DHT22;20233;50.804;7.126;2023-04-24T07:34:39;10.40;99.90
33955;DHT22;20233;50.804;7.126;2023-04-24T07:37:06;10.40;99.90
33955;DHT22;20233;50.804;7.126;2023-04-24T07:39:33;10.50;99.90
33955;DHT22;20233;50.804;7.126;2023-04-24T07:41:59;10.50;99.90
33955;DHT22;20233;50.804;7.126;2023-04-24T07:44:27;10.40;99.90
33955;DHT22;20233;50.804;7.126;2023-04-24T07:46:56;10.40;99.90
33955;DHT22;20233;50.804;7.126;2023-04-24T07:49:23;10.30;99.90
33955;DHT22;20233;50.804;7.126;2023-04-24T07:51:50;10.40;99.90
33955;DHT22;20233;50.804;7.126;2023-04-24T07:54:17;10.40;99.90
33955;DHT22;20233;50.804;7.126;2023-04-24T07:56:45;10.50;99.90
33955;DHT22;20233;50.804;7.126;2023-04-24T07:59:12;10.40;99.90
33955;DHT22;20233;50.804;7.126;2023-04-24T08:01:39;10.50;99.90
33955;DHT22;20233;50.804;7.126;2023-04-24T08:04:08;10.50;99.90
33955;DHT22;20233;50.804;7.126;2023-04-24T08:06:35;10.50;99.90
33955;DHT22;20233;50.804;7.126;2023-04-24T08:09:03;10.40;99.90
33955;DHT22;20233;50.804;7.126;2023-04-24T08:11:29;10.40;99.90
33955;DHT22;20233;50.804;7.126;2023-04-24T08:13:56;10.30;99.90
33955;DHT22;20233;50.804;7.126;2023-04-24T08:16:22;10.20;99.90
33955;DHT22;20233;50.804;7.126;2023-04-24T08:18:53;10.00;99.90
33955;DHT22;20233;50.804;7.126;2023-04-24T08:21:19;9.60;99.90
33955;DHT22;20233;50.804;7.126;2023-04-24T08:23:48;9.60;99.90
33955;DHT22;20233;50.804;7.126;2023-04-24T08:26:16;9.60;99.90
33955;DHT22;20233;50.804;7.126;2023-04-24T08:28:43;9.70;99.90
33955;DHT22;20233;50.804;7.126;2023-04-24T08:31:10;9.90;99.90
33955;DHT22;20233;50.804;7.126;2023-04-24T08:33:36;9.80;99.90
33955;DHT22;20233;50.804;7.126;2023-04-24T08:36:04;9.70;99.90
33955;DHT22;20233;50.804;7.126;2023-04-24T08:38:32;9.80;99.90
33955;DHT22;20233;50.804;7.126;2023-04-24T08:40:59;9.80;99.90
33955;DHT22;20233;50.804;7.126;2023-04-24T08:43:28;9.60;99.90
33955;DHT22;20233;50.804;7.126;2023-04-24T08:45:56;9.50;99.90
33955;DHT22;20233;50.804;7.126;2023-04-24T08:48:25;9.40;99.90
33955;DHT22;20233;50.804;7.126;2023-04-24T08:50:54;9.40;99.90
33955;DHT22;20233;50.804;7.126;2023-04-24T08:53:25;9.10;99.90
33955;DHT22;20233;50.804;7.126;2023-04-24T08:55:55;9.10;99.90
33955;DHT22;20233;50.804;7.126;2023-04-24T08:58:25;9.00;99.90
33955;DHT22;20233;50.804;7.126;2023-04-24T09:00:54;8.80;99.90
33955;DHT22;20233;50.804;7.126;2023-04-24T09:03:22;8.80;99.90
33955;DHT22;20233;50.804;7.126;2023-04-24T09:05:53;9.00;99.90
33955;DHT22;20233;50.804;7.126;2023-04-24T09:08:25;8.70;99.90
33955;DHT22;20233;50.804;7.126;2023-04-24T09:13:20;8.90;99.90
33955;DHT22;20233;50.804;7.126;2023-04-24T09:15:47;8.70;99.90
33955;DHT22;20233;50.804;7.126;2023-04-24T09:18:15;8.80;99.90
33955;DHT22;20233;50.804;7.126;2023-04-24T09:23:32;8.80;99.90
33955;DHT22;20233;50.804;7.126;2023-04-24T09:25:59;8.80;99.90
33955;DHT22;20233;50.804;7.126;2023-04-24T09:28:37;8.70;99.90
33955;DHT22;20233;50.804;7.126;2023-04-24T09:31:04;9.00;99.90
33955;DHT22;20233;50.804;7.126;2023-04-24T09:33:30;9.10;99.90
33955;DHT22;20233;50.804;7.126;2023-04-24T09:35:59;9.00;99.90
33955;DHT22;20233;50.804;7.126;2023-04-24T09:38:52;9.00;99.90
33955;DHT22;20233;50.804;7.126;2023-04-24T09:41:23;9.20;99.90
33955;DHT22;20233;50.804;7.126;2023-04-24T09:43:50;9.40;99.90
33955;DHT22;20233;50.804;7.126;2023-04-24T09:46:18;9.20;99.90
33955;DHT22;20233;50.804;7.126;2023-04-24T09:48:46;9.20;99.90
33955;DHT22;20233;50.804;7.126;2023-04-24T09:51:13;9.10;99.90
33955;DHT22;20233;50.804;7.126;2023-04-24T09:53:46;9.30;99.90
33955;DHT22;20233;50.804;7.126;2023-04-24T09:56:14;9.40;99.90
33955;DHT22;20233;50.804;7.126;2023-04-24T09:58:41;9.40;99.90
33955;DHT22;20233;50.804;7.126;2023-04-24T10:01:08;9.20;99.90
33955;DHT22;20233;50.804;7.126;2023-04-24T10:03:36;9.30;99.90
33955;DHT22;20233;50.804;7.126;2023-04-24T10:06:04;9.40;99.90
33955;DHT22;20233;50.804;7.126;2023-04-24T10:08:37;9.30;99.90
33955;DHT22;20233;50.804;7.126;2023-04-24T10:11:04;9.50;99.90
33955;DHT22;20233;50.804;7.126;2023-04-24T10:13:31;9.40;99.90
33955;DHT22;20233;50.804;7.126;2023-04-24T10:16:00;9.60;99.90
33955;DHT22;20233;50.804;7.126;2023-04-24T10:18:28;9.60;99.90
33955;DHT22;20233;50.804;7.126;2023-04-24T10:20:56;9.60;99.90
33955;DHT22;20233;50.804;7.126;2023-04-24T10:23:26;9.60;99.90
33955;DHT22;20233;50.804;7.126;2023-04-24T10:25:53;9.40;99.90
33955;DHT22;20233;50.804;7.126;2023-04-24T10:28:27;9.60;99.90
33955;DHT22;20233;50.804;7.126;2023-04-24T10:30:56;9.70;99.90
33955;DHT22;20233;50.804;7.126;2023-04-24T10:33:23;9.80;99.90
33955;DHT22;20233;50.804;7.126;2023-04-24T10:35:51;9.80;99.90
33955;DHT22;20233;50.804;7.126;2023-04-24T10:38:22;9.90;99.90
33955;DHT22;20233;50.804;7.126;2023-04-24T10:40:50;10.00;99.90
33955;DHT22;20233;50.804;7.126;2023-04-24T10:43:18;10.10;99.90
33955;DHT22;20233;50.804;7.126;2023-04-24T10:46:03;10.20;99.90
33955;DHT22;20233;50.804;7.126;2023-04-24T10:48:31;10.40;99.90
33955;DHT22;20233;50.804;7.126;2023-04-24T10:50:59;10.30;99.90
33955;DHT22;20233;50.804;7.126;2023-04-24T10:53:30;10.20;99.90
33955;DHT22;20233;50.804;7.126;2023-04-24T10:56:03;10.40;99.90
33955;DHT22;20233;50.804;7.126;2023-04-24T10:58:42;10.60;99.90
33955;DHT22;20233;50.804;7.126;2023-04-24T11:01:31;10.70;99.90
33955;DHT22;20233;50.804;7.126;2023-04-24T11:04:03;10.70;99.90
33955;DHT22;20233;50.804;7.126;2023-04-24T11:09:10;10.80;99.90
33955;DHT22;20233;50.804;7.126;2023-04-24T11:11:43;10.80;99.90
33955;DHT22;20233;50.804;7.126;2023-04-24T11:14:16;11.00;99.90
33955;DHT22;20233;50.804;7.126;2023-04-24T11:16:55;11.00;99.90
33955;DHT22;20233;50.804;7.126;2023-04-24T11:19:25;11.10;99.90
33955;DHT22;20233;50.804;7.126;2023-04-24T11:22:06;11.00;99.90
33955;DHT22;20233;50.804;7.126;2023-04-24T11:27:20;10.90;99.90
33955;DHT22;20233;50.804;7.126;2023-04-24T11:30:00;10.80;99.90
33955;DHT22;20233;50.804;7.126;2023-04-24T11:35:17;10.80;99.90
33955;DHT22;20233;50.804;7.126;2023-04-24T11:37:48;10.70;99.90
33955;DHT22;20233;50.804;7.126;2023-04-24T11:40:21;10.30;99.90
33955;DHT22;20233;50.804;7.126;2023-04-24T11:42:53;10.50;99.90
33955;DHT22;20233;50.804;7.126;2023-04-24T11:45:26;10.00;99.90
33955;DHT22;20233;50.804;7.126;2023-04-24T11:47:54;10.20;99.90
33955;DHT22;20233;50.804;7.126;2023-04-24T11:50:23;10.30;99.90
33955;DHT22;20233;50.804;7.126;2023-04-24T11:52:51;10.00;99.90
33955;DHT22;20233;50.804;7.126;2023-04-24T11:57:53;10.20;99.90
33955;DHT22;20233;50.804;7.126;2023-04-24T12:00:25;10.20;99.90
33955;DHT22;20233;50.804;7.126;2023-04-24T12:03:06;10.30;99.90
33955;DHT22;20233;50.804;7.126;2023-04-24T12:05:38;10.40;99.90
33955;DHT22;20233;50.804;7.126;2023-04-24T12:08:05;10.70;99.90
33955;DHT22;20233;50.804;7.126;2023-04-24T12:10:33;10.70;99.90
33955;DHT22;20233;50.804;7.126;2023-04-24T12:13:00;10.90;99.90
33955;DHT22;20233;50.804;7.126;2023-04-24T12:15:27;11.20;99.90
33955;DHT22;20233;50.804;7.126;2023-04-24T12:17:55;11.30;99.90
33955;DHT22;20233;50.804;7.126;2023-04-24T12:20:28;11.60;99.90
33955;DHT22;20233;50.804;7.126;2023-04-24T12:23:01;11.30;99.90
33955;DHT22;20233;50.804;7.126;2023-04-24T12:25:34;11.50;99.90
33955;DHT22;20233;50.804;7.126;2023-04-24T12:30:34;11.90;99.90
33955;DHT22;20233;50.804;7.126;2023-04-24T12:33:02;12.00;99.90
33955;DHT22;20233;50.804;7.126;2023-04-24T12:35:31;12.00;99.90
33955;DHT22;20233;50.804;7.126;2023-04-24T12:38:09;12.10;99.90
33955;DHT22;20233;50.804;7.126;2023-04-24T12:40:36;12.10;99.90
33955;DHT22;20233;50.804;7.126;2023-04-24T12:43:16;12.00;99.90
33955;DHT22;20233;50.804;7.126;2023-04-24T12:45:45;12.00;99.90
33955;DHT22;20233;50.804;7.126;2023-04-24T12:48:12;11.90;99.90
33955;DHT22;20233;50.804;7.126;2023-04-24T12:50:43;11.80;99.90
33955;DHT22;20233;50.804;7.126;2023-04-24T12:53:10;11.60;99.90
33955;DHT22;20233;50.804;7.126;2023-04-24T12:55:37;11.70;99.90
33955;DHT22;20233;50.804;7.126;2023-04-24T12:58:04;11.70;99.90
33955;DHT22;20233;50.804;7.126;2023-04-24T13:00:30;12.00;99.90
33955;DHT22;20233;50.804;7.126;2023-04-24T13:02:57;11.80;99.90
33955;DHT22;20233;50.804;7.126;2023-04-24T13:05:23;11.60;99.90
33955;DHT22;20233;50.804;7.126;2023-04-24T13:07:53;11.70;99.90
33955;DHT22;20233;50.804;7.126;2023-04-24T13:10:20;12.00;99.90
33955;DHT22;20233;50.804;7.126;2023-04-24T13:12:47;12.20;99.90
33955;DHT22;20233;50.804;7.126;2023-04-24T13:15:15;12.30;99.90
33955;DHT22;20233;50.804;7.126;2023-04-24T13:17:42;12.50;99.90
33955;DHT22;20233;50.804;7.126;2023-04-24T13:20:09;12.70;99.90
33955;DHT22;20233;50.804;7.126;2023-04-24T13:22:36;12.70;99.90
33955;DHT22;20233;50.804;7.126;2023-04-24T13:25:03;12.60;99.90
33955;DHT22;20233;50.804;7.126;2023-04-24T13:27:32;12.70;99.90
33955;DHT22;20233;50.804;7.126;2023-04-24T13:29:59;12.70;99.90
33955;DHT22;20233;50.804;7.126;2023-04-24T13:32:25;12.60;99.90
33955;DHT22;20233;50.804;7.126;2023-04-24T13:34:52;12.60;99.90
33955;DHT22;20233;50.804;7.126;2023-04-24T13:37:19;12.70;99.90
33955;DHT22;20233;50.804;7.126;2023-04-24T13:39:47;12.60;99.90
33955;DHT22;20233;50.804;7.126;2023-04-24T13:42:13;12.70;99.90
33955;DHT22;20233;50.804;7.126;2023-04-24T13:44:40;12.60;99.90
33955;DHT22;20233;50.804;7.126;2023-04-24T13:47:07;12.40;99.90
33955;DHT22;20233;50.804;7.126;2023-04-24T13:49:34;12.40;99.90
33955;DHT22;20233;50.804;7.126;2023-04-24T13:52:02;12.10;99.90
33955;DHT22;20233;50.804;7.126;2023-04-24T13:54:32;12.30;99.90
33955;DHT22;20233;50.804;7.126;2023-04-24T13:56:59;12.60;99.90
33955;DHT22;20233;50.804;7.126;2023-04-24T13:59:27;12.60;99.90
33955;DHT22;20233;50.804;7.126;2023-04-24T14:01:54;12.80;99.90
33955;DHT22;20233;50.804;7.126;2023-04-24T14:04:23;12.70;99.90
33955;DHT22;20233;50.804;7.126;2023-04-24T14:06:50;12.70;99.90
33955;DHT22;20233;50.804;7.126;2023-04-24T14:09:31;12.70;99.90
33955;DHT22;20233;50.804;7.126;2023-04-24T14:11:59;12.80;99.90
33955;DHT22;20233;50.804;7.126;2023-04-24T14:14:28;12.80;99.90
33955;DHT22;20233;50.804;7.126;2023-04-24T14:16:57;12.80;99.90
33955;DHT22;20233;50.804;7.126;2023-04-24T14:19:23;12.60;99.90
33955;DHT22;20233;50.804;7.126;2023-04-24T14:24:40;12.60;99.90
33955;DHT22;20233;50.804;7.126;2023-04-24T14:27:34;12.90;99.90
33955;DHT22;20233;50.804;7.126;2023-04-24T14:30:14;13.00;99.90
33955;DHT22;20233;50.804;7.126;2023-04-24T14:32:48;13.30;99.90
33955;DHT22;20233;50.804;7.126;2023-04-24T14:35:47;13.40;99.90
33955;DHT22;20233;50.804;7.126;2023-04-24T14:38:23;13.40;99.90
33955;DHT22;20233;50.804;7.126;2023-04-24T14:41:01;13.30;99.90
33955;DHT22;20233;50.804;7.126;2023-04-24T14:43:39;13.60;99.90
33955;DHT22;20233;50.804;7.126;2023-04-24T14:46:25;13.70;99.90
33955;DHT22;20233;50.804;7.126;2023-04-24T14:49:14;13.70;99.90
33955;DHT22;20233;50.804;7.126;2023-04-24T14:51:51;13.20;99.90
33955;DHT22;20233;50.804;7.126;2023-04-24T14:54:20;13.30;99.90
33955;DHT22;20233;50.804;7.126;2023-04-24T14:56:49;13.10;99.90
33955;DHT22;20233;50.804;7.126;2023-04-24T14:59:15;12.90;99.90
33955;DHT22;20233;50.804;7.126;2023-04-24T15:01:41;13.10;99.90
33955;DHT22;20233;50.804;7.126;2023-04-24T15:04:07;13.20;99.90
33955;DHT22;20233;50.804;7.126;2023-04-24T15:06:33;13.50;99.90
33955;DHT22;20233;50.804;7.126;2023-04-24T15:08:59;13.50;99.90
33955;DHT22;20233;50.804;7.126;2023-04-24T15:11:25;13.70;99.90
33955;DHT22;20233;50.804;7.126;2023-04-24T15:13:59;13.80;99.90
33955;DHT22;20233;50.804;7.126;2023-04-24T15:16:40;14.00;99.90
33955;DHT22;20233;50.804;7.126;2023-04-24T15:19:07;14.00;99.90
33955;DHT22;20233;50.804;7.126;2023-04-24T15:21:37;13.90;99.90
33955;DHT22;20233;50.804;7.126;2023-04-24T15:24:09;13.90;99.90
33955;DHT22;20233;50.804;7.126;2023-04-24T15:26:39;13.60;99.90
33955;DHT22;20233;50.804;7.126;2023-04-24T15:29:16;13.50;99.90
33955;DHT22;20233;50.804;7.126;2023-04-24T15:31:46;13.30;99.90
33955;DHT22;20233;50.804;7.126;2023-04-24T15:34:16;13.40;99.90
33955;DHT22;20233;50.804;7.126;2023-04-24T15:36:43;13.20;99.90
33955;DHT22;20233;50.804;7.126;2023-04-24T15:39:09;13.30;99.90
33955;DHT22;20233;50.804;7.126;2023-04-24T15:41:35;13.50;99.90
33955;DHT22;20233;50.804;7.126;2023-04-24T15:44:06;13.50;99.90
33955;DHT22;20233;50.804;7.126;2023-04-24T15:46:54;13.60;99.90
33955;DHT22;20233;50.804;7.126;2023-04-24T15:49:20;13.70;99.90
33955;DHT22;20233;50.804;7.126;2023-04-24T15:51:46;13.70;99.90
33955;DHT22;20233;50.804;7.126;2023-04-24T15:54:12;13.60;99.90
33955;DHT22;20233;50.804;7.126;2023-04-24T15:56:40;13.30;99.90
33955;DHT22;20233;50.804;7.126;2023-04-24T15:59:10;13.10;99.90
33955;DHT22;20233;50.804;7.126;2023-04-24T16:01:36;13.30;99.90
33955;DHT22;20233;50.804;7.126;2023-04-24T16:04:03;13.50;99.90